createdAt,value
2022-12-01T00:00:08.220Z,67.07
2022-12-01T00:02:35.787Z,48.47
2022-12-01T00:05:03.107Z,67.72
2022-12-01T00:07:30.418Z,62.65
2022-12-01T00:10:16.401Z,68.25
2022-12-01T00:12:43.630Z,52.03
2022-12-01T00:15:11.495Z,59.28
2022-12-01T00:17:39.708Z,67.20
2022-12-01T00:20:07.764Z,69.88
2022-12-01T00:22:34.977Z,61.70
2022-12-01T00:25:02.189Z,65.88
2022-12-01T00:27:29.785Z,58.97
2022-12-01T00:29:57.034Z,53.78
2022-12-01T00:32:24.209Z,52.83
2022-12-01T00:34:51.478Z,58.03
2022-12-01T00:37:18.640Z,55.92
2022-12-01T00:39:46.765Z,62.30
2022-12-01T00:42:14.155Z,61.03
2022-12-01T00:44:41.400Z,55.92
2022-12-01T00:47:08.658Z,59.25
2022-12-01T00:49:35.835Z,59.45
2022-12-01T00:52:03.124Z,52.05
2022-12-01T00:54:32.232Z,60.05
2022-12-01T00:56:59.878Z,57.80
2022-12-01T00:59:27.118Z,55.28
2022-12-01T01:01:54.461Z,61.13
2022-12-01T01:04:21.843Z,57.00
2022-12-01T01:06:49.111Z,62.08
2022-12-01T01:09:16.607Z,50.25
2022-12-01T01:11:43.859Z,52.72
2022-12-01T01:14:11.138Z,60.30
2022-12-01T01:16:38.451Z,54.95
2022-12-01T01:19:05.764Z,64.32
2022-12-01T01:21:33.068Z,44.75
2022-12-01T01:24:00.265Z,49.70
2022-12-01T01:26:28.914Z,54.78
2022-12-01T01:29:00.577Z,51.13
2022-12-01T01:31:28.582Z,53.65
2022-12-01T01:33:56.633Z,54.65
2022-12-01T01:36:24.062Z,48.15
2022-12-01T01:38:51.727Z,49.13
2022-12-01T01:41:19.679Z,49.50
2022-12-01T01:43:50.844Z,53.03
2022-12-01T01:46:19.251Z,45.17
2022-12-01T01:48:49.048Z,48.80
2022-12-01T01:51:23.175Z,37.17
2022-12-01T01:53:55.564Z,41.70
2022-12-01T01:56:23.829Z,41.97
2022-12-01T01:58:51.325Z,51.08
2022-12-01T02:01:18.622Z,44.78
2022-12-01T02:03:46.368Z,44.90
2022-12-01T02:06:13.982Z,39.53
2022-12-01T02:08:41.153Z,40.90
2022-12-01T02:11:08.324Z,49.75
2022-12-01T02:13:54.473Z,38.90
2022-12-01T02:16:21.671Z,34.58
2022-12-01T02:18:48.872Z,40.50
2022-12-01T02:21:34.748Z,34.95
2022-12-01T02:24:02.087Z,35.88
2022-12-01T02:26:29.280Z,30.45
2022-12-01T02:29:25.993Z,35.10
2022-12-01T02:32:11.790Z,38.05
2022-12-01T02:35:11.362Z,37.10
2022-12-01T02:37:44.212Z,40.58
2022-12-01T02:40:11.595Z,40.38
2022-12-01T02:42:54.404Z,29.25
2022-12-01T02:45:26.550Z,30.42
2022-12-01T02:47:54.969Z,28.15
2022-12-01T02:50:24.061Z,38.20
2022-12-01T02:52:51.382Z,29.58
2022-12-01T02:55:18.725Z,35.38
2022-12-01T02:57:45.927Z,37.60
2022-12-01T03:00:13.963Z,33.53
2022-12-01T03:02:51.891Z,37.72
2022-12-01T03:05:26.970Z,38.05
2022-12-01T03:07:57.574Z,32.10
2022-12-01T03:10:25.164Z,30.83
2022-12-01T03:13:10.952Z,32.05
2022-12-01T03:15:56.837Z,35.53
2022-12-01T03:18:30.368Z,28.20
2022-12-01T03:21:02.828Z,27.80
2022-12-01T03:23:32.055Z,37.70
2022-12-01T03:26:01.385Z,28.13
2022-12-01T03:28:33.517Z,29.85
2022-12-01T03:31:03.945Z,28.30
2022-12-01T03:33:36.436Z,28.40
2022-12-01T03:36:06.361Z,26.67
2022-12-01T03:38:36.285Z,27.55
2022-12-01T03:41:08.785Z,30.95
2022-12-01T03:43:39.240Z,22.10
2022-12-01T03:46:15.475Z,22.70
2022-12-01T03:48:43.010Z,25.13
2022-12-01T03:51:10.221Z,25.98
2022-12-01T03:53:56.223Z,28.50
2022-12-01T03:56:25.553Z,27.95
2022-12-01T03:58:56.481Z,20.48
2022-12-01T04:01:23.803Z,22.38
2022-12-01T04:03:51.067Z,27.88
2022-12-01T04:06:18.290Z,28.55
2022-12-01T04:08:45.504Z,22.35
2022-12-01T04:11:45.321Z,28.00
2022-12-01T04:14:12.519Z,22.52
2022-12-01T04:16:42.139Z,22.13
2022-12-01T04:19:09.386Z,20.88
2022-12-01T04:21:36.607Z,25.27
2022-12-01T04:24:04.418Z,27.35
2022-12-01T04:26:33.369Z,19.80
2022-12-01T04:29:01.150Z,22.45
2022-12-01T04:31:28.742Z,19.67
2022-12-01T04:33:56.686Z,16.48
2022-12-01T04:36:24.853Z,22.60
2022-12-01T04:38:52.198Z,20.20
2022-12-01T04:41:19.663Z,20.30
2022-12-01T04:43:46.856Z,22.27
2022-12-01T04:46:14.879Z,17.33
2022-12-01T04:48:43.281Z,18.27
2022-12-01T04:51:10.511Z,16.55
2022-12-01T04:53:37.825Z,17.08
2022-12-01T04:56:05.148Z,22.73
2022-12-01T04:58:33.162Z,15.63
2022-12-01T05:01:08.715Z,14.82
2022-12-01T05:03:39.806Z,15.43
2022-12-01T05:06:08.350Z,20.50
2022-12-01T05:08:35.559Z,20.25
2022-12-01T05:11:03.005Z,16.33
2022-12-01T05:13:42.046Z,19.25
2022-12-01T05:16:10.521Z,16.13
2022-12-01T05:18:38.127Z,15.18
2022-12-01T05:21:06.785Z,15.73
2022-12-01T05:23:40.102Z,13.60
2022-12-01T05:26:10.839Z,12.52
2022-12-01T05:28:38.708Z,12.55
2022-12-01T05:31:06.082Z,15.13
2022-12-01T05:33:35.828Z,14.95
2022-12-01T05:36:03.079Z,9.10
2022-12-01T05:38:30.256Z,12.73
2022-12-01T05:40:57.462Z,8.63
2022-12-01T05:43:28.979Z,14.68
2022-12-01T05:45:59.315Z,8.23
2022-12-01T05:48:33.751Z,12.45
2022-12-01T05:51:05.931Z,11.43
2022-12-01T05:53:33.156Z,9.85
2022-12-01T05:56:00.436Z,14.80
2022-12-01T05:58:27.630Z,7.72
2022-12-01T06:00:54.824Z,9.93
2022-12-01T06:03:22.052Z,7.82
2022-12-01T06:05:51.727Z,10.73
2022-12-01T06:08:19.278Z,11.60
2022-12-01T06:10:46.787Z,8.90
2022-12-01T06:13:14.070Z,7.28
2022-12-01T06:15:41.354Z,6.05
2022-12-01T06:18:08.528Z,11.30
2022-12-01T06:20:35.780Z,10.60
2022-12-01T06:23:06.049Z,10.50
2022-12-01T06:25:33.542Z,13.07
2022-12-01T06:28:00.819Z,11.38
2022-12-01T06:30:28.166Z,7.47
2022-12-01T06:32:55.438Z,5.97
2022-12-01T06:35:22.673Z,6.45
2022-12-01T06:37:49.926Z,6.25
2022-12-01T06:40:17.176Z,6.75
2022-12-01T06:42:44.404Z,6.15
2022-12-01T06:45:11.915Z,7.82
2022-12-01T06:47:39.200Z,9.55
2022-12-01T06:50:08.630Z,7.30
2022-12-01T06:52:36.519Z,5.75
2022-12-01T06:55:09.200Z,7.82
2022-12-01T06:57:36.606Z,7.57
2022-12-01T07:00:08.826Z,7.10
2022-12-01T07:02:36.580Z,6.25
2022-12-01T07:05:03.862Z,6.72
2022-12-01T07:07:31.154Z,6.35
2022-12-01T07:09:58.455Z,5.35
2022-12-01T07:12:25.640Z,4.70
2022-12-01T07:14:52.893Z,5.40
2022-12-01T07:17:20.175Z,5.05
2022-12-01T07:19:47.664Z,7.78
2022-12-01T07:22:17.407Z,8.32
2022-12-01T07:24:44.596Z,4.28
2022-12-01T07:27:11.942Z,8.13
2022-12-01T07:29:39.176Z,4.43
2022-12-01T07:32:06.415Z,8.00
2022-12-01T07:34:33.600Z,4.97
2022-12-01T07:37:00.784Z,7.55
2022-12-01T07:39:27.950Z,7.57
2022-12-01T07:41:57.449Z,6.90
2022-12-01T07:44:24.677Z,6.22
2022-12-01T07:46:51.966Z,7.50
2022-12-01T07:49:19.211Z,9.05
2022-12-01T07:51:46.452Z,7.20
2022-12-01T07:54:17.667Z,9.60
2022-12-01T07:56:47.090Z,5.57
2022-12-01T07:59:14.286Z,6.63
2022-12-01T08:01:44.508Z,10.15
2022-12-01T08:04:12.165Z,6.55
2022-12-01T08:06:41.791Z,6.53
2022-12-01T08:09:13.707Z,5.45
2022-12-01T08:11:41.223Z,7.80
2022-12-01T08:14:08.477Z,8.93
2022-12-01T08:16:35.705Z,7.47
2022-12-01T08:19:02.965Z,50.13
2022-12-01T08:21:30.360Z,14.65
2022-12-01T08:23:58.102Z,8.02
2022-12-01T08:26:26.333Z,6.35
2022-12-01T08:28:53.647Z,9.07
2022-12-01T08:31:22.856Z,6.97
2022-12-01T08:33:52.473Z,5.13
2022-12-01T08:36:20.602Z,6.15
2022-12-01T08:38:49.365Z,6.50
2022-12-01T08:41:21.046Z,6.07
2022-12-01T08:44:03.486Z,9.30
2022-12-01T08:46:37.318Z,8.65
2022-12-01T08:49:05.713Z,6.60
2022-12-01T08:51:33.489Z,8.60
2022-12-01T08:54:01.691Z,6.82
2022-12-01T08:56:36.530Z,9.40
2022-12-01T08:59:04.070Z,7.97
2022-12-01T09:01:31.354Z,6.95
2022-12-01T09:04:06.009Z,9.38
2022-12-01T09:06:43.768Z,27.38
2022-12-01T09:09:12.033Z,8.75
2022-12-01T09:11:39.495Z,10.38
2022-12-01T09:14:06.841Z,8.65
2022-12-01T09:16:34.289Z,5.53
2022-12-01T09:19:01.903Z,12.05
2022-12-01T09:21:31.037Z,6.30
2022-12-01T09:23:58.552Z,11.98
2022-12-01T09:26:27.383Z,9.05
2022-12-01T09:28:55.791Z,9.13
2022-12-01T09:31:24.762Z,10.50
2022-12-01T09:33:56.470Z,12.27
2022-12-01T09:36:27.812Z,9.90
2022-12-01T09:38:55.008Z,9.02
2022-12-01T09:41:27.486Z,7.80
2022-12-01T09:44:10.652Z,7.40
2022-12-01T09:46:41.581Z,6.65
2022-12-01T09:49:16.703Z,8.30
2022-12-01T09:51:46.267Z,7.13
2022-12-01T09:54:16.602Z,7.28
2022-12-01T09:56:53.341Z,9.63
2022-12-01T09:59:23.578Z,6.38
2022-12-01T10:01:54.516Z,9.10
2022-12-01T10:04:26.055Z,5.68
2022-12-01T10:06:56.238Z,8.70
2022-12-01T10:09:28.991Z,8.40
2022-12-01T10:11:58.913Z,5.28
2022-12-01T10:14:29.602Z,4.53
2022-12-01T10:17:03.892Z,7.22
2022-12-01T10:19:49.540Z,8.00
2022-12-01T10:22:20.174Z,5.75
2022-12-01T10:24:49.759Z,4.28
2022-12-01T10:27:21.822Z,9.85
2022-12-01T10:29:52.738Z,8.60
2022-12-01T10:32:21.681Z,7.97
2022-12-01T10:34:49.184Z,6.75
2022-12-01T10:37:22.156Z,14.32
2022-12-01T10:39:52.044Z,7.47
2022-12-01T10:42:19.724Z,5.78
2022-12-01T10:44:49.085Z,7.32
2022-12-01T10:47:21.409Z,8.05
2022-12-01T10:49:49.356Z,9.23
2022-12-01T10:52:35.336Z,10.27
2022-12-01T10:55:03.402Z,7.00
2022-12-01T10:57:31.403Z,8.27
2022-12-01T11:00:01.135Z,8.38
2022-12-01T11:02:29.723Z,10.75
2022-12-01T11:05:02.502Z,7.13
2022-12-01T11:07:32.916Z,7.72
2022-12-01T11:10:07.763Z,7.40
2022-12-01T11:12:35.204Z,9.82
2022-12-01T11:15:22.490Z,10.65
2022-12-01T11:17:57.315Z,10.15
2022-12-01T11:20:41.811Z,5.38
2022-12-01T11:23:21.102Z,8.25
2022-12-01T11:26:08.736Z,12.02
2022-12-01T11:28:36.820Z,9.27
2022-12-01T11:31:14.224Z,7.75
2022-12-01T11:33:50.876Z,8.82
2022-12-01T11:36:32.056Z,8.60
2022-12-01T11:39:02.270Z,8.35
2022-12-01T11:41:32.537Z,8.32
2022-12-01T11:44:03.919Z,7.15
2022-12-01T11:46:33.578Z,8.18
2022-12-01T11:49:01.235Z,7.80
2022-12-01T11:51:31.937Z,11.10
2022-12-01T11:54:07.891Z,11.90
2022-12-01T11:56:35.132Z,10.48
2022-12-01T11:59:03.972Z,8.18
2022-12-01T12:01:43.378Z,11.82
2022-12-01T12:04:10.671Z,10.88
2022-12-01T12:06:55.981Z,8.63
2022-12-01T12:09:23.252Z,9.15
2022-12-01T12:12:03.637Z,13.23
2022-12-01T12:14:30.888Z,8.13
2022-12-01T12:17:07.077Z,7.32
2022-12-01T12:19:45.688Z,7.50
2022-12-01T12:22:24.404Z,7.50
2022-12-01T12:24:54.425Z,7.07
2022-12-01T12:27:40.519Z,8.52
2022-12-01T12:30:20.192Z,6.38
2022-12-01T12:32:56.440Z,12.02
2022-12-01T12:35:42.606Z,10.38
2022-12-01T12:38:12.816Z,15.73
2022-12-01T12:40:58.967Z,10.68
2022-12-01T12:43:35.671Z,9.90
2022-12-01T12:46:06.004Z,7.88
2022-12-01T12:48:35.985Z,9.13
2022-12-01T12:51:08.698Z,8.63
2022-12-01T12:53:40.033Z,8.75
2022-12-01T12:56:10.652Z,9.45
2022-12-01T12:58:56.934Z,8.80
2022-12-01T13:01:27.089Z,15.02
2022-12-01T13:03:57.471Z,18.73
2022-12-01T13:06:27.880Z,15.32
2022-12-01T13:09:08.836Z,10.68
2022-12-01T13:11:58.192Z,13.85
2022-12-01T13:14:28.744Z,14.75
2022-12-01T13:17:00.931Z,15.85
2022-12-01T13:19:30.339Z,12.85
2022-12-01T13:21:58.383Z,15.05
2022-12-01T13:24:28.284Z,16.25
2022-12-01T13:26:58.289Z,19.30
2022-12-01T13:29:26.680Z,15.30
2022-12-01T13:31:55.174Z,11.93
2022-12-01T13:34:28.331Z,15.73
2022-12-01T13:36:56.673Z,12.32
2022-12-01T13:39:35.594Z,13.82
2022-12-01T13:42:17.718Z,17.98
2022-12-01T13:44:46.735Z,21.73
2022-12-01T13:47:13.989Z,98.28
2022-12-01T13:49:44.435Z,20.45
2022-12-01T13:52:26.021Z,14.38
2022-12-01T13:55:08.564Z,13.65
2022-12-01T13:57:35.810Z,11.65
2022-12-01T14:00:06.875Z,13.68
2022-12-01T14:02:35.179Z,15.85
2022-12-01T14:05:21.353Z,14.90
2022-12-01T14:07:49.905Z,17.08
2022-12-01T14:10:33.099Z,17.58
2022-12-01T14:13:02.944Z,17.35
2022-12-01T14:15:30.215Z,17.60
2022-12-01T14:18:20.760Z,15.02
2022-12-01T14:20:49.237Z,14.15
2022-12-01T14:23:36.336Z,11.30
2022-12-01T14:26:12.701Z,15.18
2022-12-01T14:28:58.696Z,17.52
2022-12-01T14:31:49.934Z,21.15
2022-12-01T14:34:19.239Z,17.20
2022-12-01T14:36:59.132Z,15.63
2022-12-01T14:39:32.548Z,17.20
2022-12-01T14:42:01.987Z,21.65
2022-12-01T14:44:41.577Z,19.35
2022-12-01T14:47:17.096Z,17.98
2022-12-01T14:49:44.333Z,16.00
2022-12-01T14:52:18.489Z,12.75
2022-12-01T14:54:47.475Z,17.25
2022-12-01T14:57:17.408Z,19.52
2022-12-01T14:59:45.379Z,19.15
2022-12-01T15:02:12.950Z,15.90
2022-12-01T15:04:58.989Z,17.80
2022-12-01T15:07:26.331Z,23.42
2022-12-01T15:10:02.004Z,17.85
2022-12-01T15:12:30.367Z,23.83
2022-12-01T15:14:57.856Z,15.57
2022-12-01T15:17:33.058Z,10.98
2022-12-01T15:20:00.351Z,14.82
2022-12-01T15:22:30.273Z,13.20
2022-12-01T15:25:14.489Z,16.10
2022-12-01T15:27:43.971Z,9.68
2022-12-01T15:30:14.009Z,12.32
2022-12-01T15:32:46.042Z,10.90
2022-12-01T15:35:23.688Z,12.43
2022-12-01T15:37:52.609Z,9.13
2022-12-01T15:43:20.462Z,16.02
2022-12-01T15:45:55.209Z,13.50
2022-12-01T15:48:27.661Z,13.25
2022-12-01T15:51:03.091Z,12.25
2022-12-01T15:53:34.105Z,13.23
2022-12-01T15:56:03.486Z,15.27
2022-12-01T15:58:31.786Z,15.00
2022-12-01T16:00:59.421Z,15.98
2022-12-01T16:03:26.940Z,15.10
2022-12-01T16:05:54.624Z,17.48
2022-12-01T16:08:23.908Z,15.68
2022-12-01T16:11:10.867Z,15.82
2022-12-01T16:13:41.196Z,27.90
2022-12-01T16:16:29.552Z,16.20
2022-12-01T16:18:59.476Z,19.60
2022-12-01T16:21:29.570Z,17.55
2022-12-01T16:24:01.151Z,21.80
2022-12-01T16:26:29.045Z,19.70
2022-12-01T16:28:56.780Z,17.17
2022-12-01T16:31:26.175Z,15.25
2022-12-01T16:34:13.835Z,22.45
2022-12-01T16:36:50.958Z,22.38
2022-12-01T16:39:18.237Z,31.20
2022-12-01T16:41:46.870Z,24.95
2022-12-01T16:44:32.649Z,29.38
2022-12-01T16:46:59.909Z,29.25
2022-12-01T16:49:27.212Z,26.80
2022-12-01T16:51:56.530Z,25.63
2022-12-01T16:54:25.536Z,28.23
2022-12-01T16:56:52.833Z,34.88
2022-12-01T16:59:20.415Z,38.47
2022-12-01T17:01:47.782Z,35.38
2022-12-01T17:04:15.266Z,37.35
2022-12-01T17:06:42.600Z,31.70
2022-12-01T17:09:09.891Z,25.95
2022-12-01T17:11:37.207Z,34.95
2022-12-01T17:14:04.461Z,28.92
2022-12-01T17:16:31.765Z,28.95
2022-12-01T17:19:00.828Z,25.85
2022-12-01T17:21:28.450Z,31.38
2022-12-01T17:23:56.033Z,31.85
2022-12-01T17:26:23.792Z,32.15
2022-12-01T17:28:51.106Z,31.15
2022-12-01T17:31:18.407Z,32.25
2022-12-01T17:33:46.474Z,33.30
2022-12-01T17:36:14.464Z,32.30
2022-12-01T17:38:44.848Z,37.17
2022-12-01T17:41:13.954Z,28.13
2022-12-01T17:43:41.310Z,31.17
2022-12-01T17:46:09.837Z,27.23
2022-12-01T17:48:41.142Z,53.42
2022-12-01T17:51:09.110Z,50.20
2022-12-01T17:53:37.026Z,45.55
2022-12-01T17:56:06.895Z,38.33
2022-12-01T17:58:34.383Z,45.22
2022-12-01T18:01:01.798Z,61.60
2022-12-01T18:03:29.191Z,69.85
2022-12-01T18:05:57.670Z,37.20
2022-12-01T18:08:28.857Z,30.42
2022-12-01T18:11:00.819Z,37.05
2022-12-01T18:13:28.227Z,30.30
2022-12-01T18:15:55.559Z,35.13
2022-12-01T18:18:25.479Z,31.38
2022-12-01T18:20:52.700Z,31.60
2022-12-01T18:23:20.563Z,30.52
2022-12-01T18:25:47.878Z,30.50
2022-12-01T18:28:15.249Z,33.75
2022-12-01T18:30:42.464Z,34.42
2022-12-01T18:33:12.289Z,30.20
2022-12-01T18:35:45.493Z,28.40
2022-12-01T18:38:12.903Z,33.25
2022-12-01T18:40:40.159Z,27.35
2022-12-01T18:43:07.501Z,43.67
2022-12-01T18:45:34.757Z,37.38
2022-12-01T18:48:02.044Z,33.95
2022-12-01T18:50:29.816Z,29.30
2022-12-01T18:52:57.282Z,34.45
2022-12-01T18:55:24.632Z,37.53
2022-12-01T18:57:51.922Z,46.10
2022-12-01T19:00:19.320Z,34.13
2022-12-01T19:02:46.616Z,40.33
2022-12-01T19:05:13.885Z,31.08
2022-12-01T19:07:41.180Z,42.72
2022-12-01T19:10:08.980Z,30.55
2022-12-01T19:12:40.798Z,33.38
2022-12-01T19:15:08.965Z,36.35
2022-12-01T19:17:36.297Z,38.72
2022-12-01T19:20:04.783Z,35.97
2022-12-01T19:22:32.638Z,38.90
2022-12-01T19:25:02.293Z,38.08
2022-12-01T19:27:30.451Z,37.67
2022-12-01T19:29:57.715Z,38.35
2022-12-01T19:32:25.089Z,34.58
2022-12-01T19:34:52.662Z,30.80
2022-12-01T19:37:20.027Z,33.13
2022-12-01T19:39:47.233Z,32.80
2022-12-01T19:42:14.553Z,32.05
2022-12-01T19:44:41.825Z,32.70
2022-12-01T19:47:10.090Z,29.80
2022-12-01T19:49:38.030Z,31.60
2022-12-01T19:52:08.526Z,34.10
2022-12-01T19:54:37.683Z,28.55
2022-12-01T19:57:04.961Z,30.38
2022-12-01T19:59:32.300Z,29.60
2022-12-01T20:01:59.639Z,32.17
2022-12-01T20:04:29.102Z,31.30
2022-12-01T20:06:56.348Z,30.65
2022-12-01T20:09:23.627Z,30.98
2022-12-01T20:11:51.044Z,34.55
2022-12-01T20:14:18.413Z,34.97
2022-12-01T20:16:45.738Z,32.30
2022-12-01T20:19:13.177Z,30.25
2022-12-01T20:21:43.078Z,38.03
2022-12-01T20:24:14.734Z,39.42
2022-12-01T20:26:43.581Z,29.67
2022-12-01T20:29:21.958Z,28.40
2022-12-01T20:31:50.286Z,29.23
2022-12-01T20:34:22.075Z,33.22
2022-12-01T20:36:49.779Z,29.38
2022-12-01T20:39:17.088Z,29.58
2022-12-01T20:41:44.863Z,29.45
2022-12-01T20:44:12.703Z,30.08
2022-12-01T20:46:45.300Z,30.55
2022-12-01T20:49:13.079Z,30.23
2022-12-01T20:51:40.358Z,31.05
2022-12-01T20:56:56.072Z,32.70
2022-12-01T20:59:23.476Z,29.52
2022-12-01T21:01:50.840Z,31.25
2022-12-01T21:04:18.582Z,35.90
2022-12-01T21:06:46.221Z,32.58
2022-12-01T21:09:14.984Z,29.13
2022-12-01T21:12:10.888Z,26.80
2022-12-01T21:14:40.086Z,34.17
2022-12-01T21:17:19.430Z,29.38
2022-12-01T21:20:21.929Z,34.60
2022-12-01T21:22:53.662Z,32.10
2022-12-01T21:25:24.553Z,31.98
2022-12-01T21:27:52.428Z,38.15
2022-12-01T21:30:26.096Z,32.83
2022-12-01T21:32:54.191Z,36.03
2022-12-01T21:35:23.560Z,39.63
2022-12-01T21:37:51.826Z,39.78
2022-12-01T21:40:23.734Z,35.55
2022-12-01T21:42:51.757Z,34.33
2022-12-01T21:45:29.301Z,35.75
2022-12-01T21:48:01.617Z,37.10
2022-12-01T21:50:28.927Z,29.65
2022-12-01T21:52:56.258Z,32.58
2022-12-01T21:55:23.547Z,34.60
2022-12-01T21:57:54.130Z,36.75
2022-12-01T22:00:27.224Z,32.08
2022-12-01T22:03:09.885Z,35.05
2022-12-01T22:06:07.075Z,43.55
2022-12-01T22:08:39.096Z,32.40
2022-12-01T22:11:12.115Z,31.52
2022-12-01T22:13:40.015Z,33.13
2022-12-01T22:16:15.759Z,35.10
2022-12-01T22:18:45.942Z,32.53
2022-12-01T22:21:31.816Z,33.33
2022-12-01T22:24:11.188Z,31.27
2022-12-01T22:26:40.433Z,31.00
2022-12-01T22:29:30.581Z,35.75
2022-12-01T22:32:18.317Z,35.80
2022-12-01T22:34:50.205Z,36.50
2022-12-01T22:37:20.637Z,40.30
2022-12-01T22:39:49.643Z,37.42
2022-12-01T22:42:21.342Z,38.15
2022-12-01T22:44:48.848Z,38.50
2022-12-01T22:47:16.404Z,43.80
2022-12-01T22:49:43.798Z,42.97
2022-12-01T22:52:18.147Z,39.90
2022-12-01T22:54:50.067Z,35.97
2022-12-01T22:57:17.416Z,34.65
2022-12-01T22:59:46.528Z,41.13
2022-12-01T23:02:18.003Z,46.22
2022-12-01T23:04:48.312Z,41.38
2022-12-01T23:07:15.705Z,41.20
2022-12-01T23:09:44.463Z,43.80
2022-12-01T23:12:11.704Z,43.40
2022-12-01T23:14:49.673Z,45.67
2022-12-01T23:17:27.762Z,45.63
2022-12-01T23:20:21.688Z,39.67
2022-12-01T23:22:49.535Z,44.60
2022-12-01T23:25:18.315Z,48.75
2022-12-01T23:27:47.219Z,40.28
2022-12-01T23:30:14.912Z,43.90
2022-12-01T23:32:42.323Z,47.92
2022-12-01T23:35:16.852Z,45.90
2022-12-01T23:37:44.957Z,48.38
2022-12-01T23:40:23.555Z,53.67
2022-12-01T23:42:51.514Z,46.78
2022-12-01T23:45:23.412Z,54.55
2022-12-01T23:47:50.898Z,50.40
2022-12-01T23:50:23.061Z,51.30
2022-12-01T23:52:50.323Z,49.75
2022-12-01T23:55:22.799Z,47.92
2022-12-01T23:57:50.772Z,49.20
